« 小牧基地オープンベース2 名古屋飛行場 2014/2/22 sat | トップページ | 小牧基地オープンベース3 名古屋飛行場 2014/2/22 sat »

2014/02/26

PM2.5 富山空港 2014/2/26 wed

大陸から微小粒子状物質(PM2.5)が飛来していて、富山県にも注意喚起が発令されています。黄砂よりも、ふわっとしたもやもやが空全体を覆っているようです。

RJNT 260400Z 35008KT 320V040 6000 NSC 10/M00 Q1027

20140226_rjnt_00ja301k

富山ダウンタウンも靄って見えにくい。

20140226_rjnt_01ja301k

ADO120 RJCC-RJNT JA301K B737-54K

おや、垂直尾翼のてっぺんが変?

20140226_rjnt_02ja6768

JA6768 B412 富山県消防防災

20140226_rjnt_03ja301k

20140226_rjnt_04ja8674

靄の中、ライトブレイク

20140226_rjnt_05ja8674

20140226_rjnt_06ja301k

ADO121 RJNT-RJCC JA301K B737-54K

20140226_rjnt_07ja8674

20140226_rjnt_08ja8674

20140226_rjnt_09ja8674

20140226_rjnt_10ja8674

ANA885 RJTT-RJNT JA8674 B767-381

RJNT 260600Z 35005KT 320V040 7000 NSC 10/00 Q1027

15時時点で空港近隣の観測点では 婦中速星 41 小杉太閤山 75 (μg/m3)

ANA     /882 JA8291
ANA881/884 JA8578
ANA883/886 JA809A
ANA885/888 JA8674
ANA887/890 JA817A
ANA889/892 JA8368
ANA891       JA8363

ADO120/121 JA301K

CSN613/614 B-

|

« 小牧基地オープンベース2 名古屋飛行場 2014/2/22 sat | トップページ | 小牧基地オープンベース3 名古屋飛行場 2014/2/22 sat »

富山空港」カテゴリの記事

コメント

コメントを書く



(ウェブ上には掲載しません)


コメントは記事投稿者が公開するまで表示されません。



トラックバック


この記事へのトラックバック一覧です: PM2.5 富山空港 2014/2/26 wed:

« 小牧基地オープンベース2 名古屋飛行場 2014/2/22 sat | トップページ | 小牧基地オープンベース3 名古屋飛行場 2014/2/22 sat »